createdAt,value
2018-08-22T00:00:41.174Z,83.10
2018-08-22T00:03:09.404Z,83.40
2018-08-22T00:05:37.654Z,83.60
2018-08-22T00:08:06.202Z,83.90
2018-08-22T00:10:34.480Z,84.30
2018-08-22T00:13:02.749Z,84.60
2018-08-22T00:15:31.007Z,85.00
2018-08-22T00:17:59.249Z,85.30
2018-08-22T00:20:27.486Z,85.50
2018-08-22T00:22:55.763Z,85.70
2018-08-22T00:25:24.075Z,85.70
2018-08-22T00:27:52.296Z,86.00
2018-08-22T00:30:20.529Z,86.20
2018-08-22T00:32:48.794Z,86.40
2018-08-22T00:35:17.015Z,86.50
2018-08-22T00:37:45.246Z,86.60
2018-08-22T00:40:13.526Z,86.90
2018-08-22T00:42:41.743Z,87.10
2018-08-22T00:45:10.007Z,87.00
2018-08-22T00:47:38.287Z,87.30
2018-08-22T00:50:06.532Z,87.60
2018-08-22T00:52:34.754Z,87.80
2018-08-22T00:55:03.164Z,87.70
2018-08-22T00:57:31.383Z,87.80
2018-08-22T00:59:59.709Z,88.10
2018-08-22T01:02:27.943Z,88.30
2018-08-22T01:04:56.195Z,88.30
2018-08-22T01:07:24.477Z,88.40
2018-08-22T01:09:52.720Z,88.20
2018-08-22T01:12:20.956Z,88.10
2018-08-22T01:14:49.291Z,88.20
2018-08-22T01:17:17.511Z,88.10
2018-08-22T01:19:45.749Z,88.30
2018-08-22T01:22:13.975Z,88.30
2018-08-22T01:24:42.243Z,88.50
2018-08-22T01:27:14.738Z,88.40
2018-08-22T01:29:42.947Z,88.40
2018-08-22T01:32:11.211Z,88.30
2018-08-22T01:34:39.429Z,88.30
2018-08-22T01:37:07.650Z,88.40
2018-08-22T01:39:35.850Z,88.60
2018-08-22T01:42:04.103Z,88.50
2018-08-22T01:44:32.328Z,88.60
2018-08-22T01:47:00.555Z,88.70
2018-08-22T01:49:28.827Z,88.50
2018-08-22T01:51:57.046Z,88.80
2018-08-22T01:54:25.490Z,88.90
2018-08-22T01:56:53.719Z,89.10
2018-08-22T01:59:21.974Z,89.30
2018-08-22T02:01:50.214Z,89.50
2018-08-22T02:04:18.455Z,89.50
2018-08-22T02:06:46.702Z,89.40
2018-08-22T02:09:14.942Z,89.40
2018-08-22T02:11:43.183Z,89.60
2018-08-22T02:14:12.078Z,89.60
2018-08-22T02:16:40.412Z,89.80
2018-08-22T02:19:09.582Z,89.90
2018-08-22T02:21:44.210Z,90.00
2018-08-22T02:24:12.613Z,90.00
2018-08-22T02:26:40.903Z,89.90
2018-08-22T02:29:09.131Z,89.90
2018-08-22T02:31:37.378Z,90.00
2018-08-22T02:34:05.655Z,90.10
2018-08-22T02:36:33.923Z,90.20
2018-08-22T02:39:02.168Z,90.20
2018-08-22T02:41:30.415Z,90.30
2018-08-22T02:43:58.668Z,90.40
2018-08-22T02:46:26.896Z,90.40
2018-08-22T02:48:56.223Z,90.50
2018-08-22T02:51:27.895Z,90.60
2018-08-22T02:53:56.218Z,90.60
2018-08-22T02:56:24.483Z,90.60
2018-08-22T02:58:52.711Z,90.60
2018-08-22T03:01:20.962Z,90.60
2018-08-22T03:03:49.171Z,90.70
2018-08-22T03:06:17.394Z,90.70
2018-08-22T03:08:45.648Z,90.70
2018-08-22T03:11:13.847Z,90.80
2018-08-22T03:13:42.074Z,90.80
2018-08-22T03:16:10.354Z,90.90
2018-08-22T03:18:38.543Z,90.90
2018-08-22T03:21:06.767Z,90.90
2018-08-22T03:23:35.179Z,90.90
2018-08-22T03:26:03.444Z,91.20
2018-08-22T03:28:31.636Z,91.00
2018-08-22T03:30:59.864Z,91.00
2018-08-22T03:33:28.084Z,90.90
2018-08-22T03:35:56.331Z,90.90
2018-08-22T03:38:24.546Z,91.00
2018-08-22T03:40:52.766Z,90.90
2018-08-22T03:43:21.047Z,90.90
2018-08-22T03:45:49.268Z,91.00
2018-08-22T03:48:17.683Z,91.20
2018-08-22T03:50:45.950Z,91.40
2018-08-22T03:53:14.211Z,91.90
2018-08-22T03:55:42.392Z,91.60
2018-08-22T03:58:10.735Z,91.70
2018-08-22T04:00:38.942Z,91.70
2018-08-22T04:03:07.159Z,91.80
2018-08-22T04:05:35.391Z,91.90
2018-08-22T04:08:03.595Z,91.90
2018-08-22T04:10:31.823Z,92.00
2018-08-22T04:13:00.011Z,92.30
2018-08-22T04:15:28.335Z,92.00
2018-08-22T04:17:56.548Z,92.10
2018-08-22T04:20:24.759Z,92.10
2018-08-22T04:22:52.978Z,92.10
2018-08-22T04:25:21.172Z,92.00
2018-08-22T04:27:49.391Z,92.20
2018-08-22T04:30:17.600Z,92.30
2018-08-22T04:32:45.819Z,92.30
2018-08-22T04:35:14.052Z,92.30
2018-08-22T04:37:42.270Z,92.30
2018-08-22T04:40:10.551Z,92.40
2018-08-22T04:42:38.779Z,92.40
2018-08-22T04:45:07.032Z,92.50
2018-08-22T04:47:35.259Z,92.60
2018-08-22T04:50:03.503Z,92.70
2018-08-22T04:52:31.727Z,92.70
2018-08-22T04:54:59.940Z,92.70
2018-08-22T04:57:28.171Z,92.70
2018-08-22T04:59:56.386Z,92.80
2018-08-22T05:02:24.634Z,92.80
2018-08-22T05:04:52.840Z,92.80
2018-08-22T05:07:21.095Z,92.80
2018-08-22T05:09:49.295Z,92.80
2018-08-22T05:12:17.527Z,92.90
2018-08-22T05:14:45.753Z,92.90
2018-08-22T05:17:13.982Z,92.80
2018-08-22T05:19:42.166Z,92.90
2018-08-22T05:22:10.387Z,93.00
2018-08-22T05:24:38.740Z,93.10
2018-08-22T05:27:06.940Z,93.00
2018-08-22T05:29:35.228Z,92.80
2018-08-22T05:32:03.415Z,92.80
2018-08-22T05:34:31.649Z,92.70
2018-08-22T05:36:59.926Z,92.80
2018-08-22T05:39:28.120Z,92.80
2018-08-22T05:41:56.391Z,92.70
2018-08-22T05:44:24.678Z,92.50
2018-08-22T05:46:52.896Z,92.50
2018-08-22T05:49:21.112Z,92.50
2018-08-22T05:51:50.291Z,93.00
2018-08-22T05:54:18.547Z,92.60
2018-08-22T05:56:46.791Z,92.60
2018-08-22T05:59:15.089Z,92.80
2018-08-22T06:01:43.348Z,92.40
2018-08-22T06:04:11.659Z,92.60
2018-08-22T06:06:39.887Z,92.20
2018-08-22T06:09:09.784Z,92.20
2018-08-22T06:11:38.037Z,92.30
2018-08-22T06:14:06.559Z,92.50
2018-08-22T06:16:34.749Z,92.70
2018-08-22T06:19:02.975Z,92.90
2018-08-22T06:21:31.182Z,93.10
2018-08-22T06:23:59.375Z,93.40
2018-08-22T06:26:27.832Z,93.70
2018-08-22T06:28:56.082Z,94.00
2018-08-22T06:31:24.321Z,94.20
2018-08-22T06:33:52.531Z,94.40
2018-08-22T06:36:20.818Z,94.50
2018-08-22T06:38:48.993Z,94.30
2018-08-22T06:41:17.203Z,93.90
2018-08-22T06:43:45.591Z,93.80
2018-08-22T06:46:14.155Z,93.60
2018-08-22T06:48:42.334Z,93.50
2018-08-22T06:51:10.564Z,93.20
2018-08-22T06:53:38.812Z,93.00
2018-08-22T06:56:07.060Z,93.00
2018-08-22T06:58:35.280Z,92.80
2018-08-22T07:01:03.467Z,92.60
2018-08-22T07:03:31.891Z,92.50
2018-08-22T07:06:00.090Z,92.70
2018-08-22T07:08:28.348Z,92.00
2018-08-22T07:10:56.543Z,92.00
2018-08-22T07:13:24.928Z,92.00
2018-08-22T07:15:53.183Z,92.00
2018-08-22T07:18:21.398Z,92.00
2018-08-22T07:20:49.683Z,92.00
2018-08-22T07:23:17.996Z,91.80
2018-08-22T07:25:46.263Z,91.60
2018-08-22T07:28:14.488Z,91.40
2018-08-22T07:30:42.703Z,91.30
2018-08-22T07:33:10.911Z,91.40
2018-08-22T07:35:39.188Z,91.30
2018-08-22T07:38:07.372Z,91.30
2018-08-22T07:40:35.743Z,91.20
2018-08-22T07:43:03.978Z,90.90
2018-08-22T07:45:32.866Z,90.50
2018-08-22T07:48:01.084Z,90.10
2018-08-22T07:50:29.287Z,88.60
2018-08-22T07:53:02.839Z,88.40
2018-08-22T07:55:33.929Z,88.50
2018-08-22T07:58:02.199Z,87.80
2018-08-22T08:00:30.384Z,86.90
2018-08-22T08:02:58.846Z,85.60
2018-08-22T08:05:27.224Z,85.50
2018-08-22T08:07:55.394Z,84.80
2018-08-22T08:10:29.014Z,84.10
2018-08-22T08:12:57.219Z,83.20
2018-08-22T08:15:25.455Z,83.30
2018-08-22T08:17:53.762Z,81.90
2018-08-22T08:20:22.220Z,80.10
2018-08-22T08:22:50.485Z,78.80
2018-08-22T08:25:18.884Z,78.00
2018-08-22T08:27:47.152Z,77.70
2018-08-22T08:30:15.354Z,77.30
2018-08-22T08:32:43.911Z,77.30
2018-08-22T08:35:12.305Z,76.90
2018-08-22T08:37:40.519Z,76.50
2018-08-22T08:40:08.785Z,75.90
2018-08-22T08:42:36.988Z,75.80
2018-08-22T08:45:07.891Z,75.90
2018-08-22T08:47:36.104Z,75.70
2018-08-22T08:50:04.343Z,75.20
2018-08-22T08:52:32.603Z,74.90
2018-08-22T08:55:00.842Z,75.00
2018-08-22T08:57:29.120Z,75.20
2018-08-22T08:59:57.280Z,75.00
2018-08-22T09:02:25.466Z,75.20
2018-08-22T09:04:53.775Z,75.70
2018-08-22T09:07:22.119Z,75.10
2018-08-22T09:09:50.419Z,74.60
2018-08-22T09:12:18.821Z,74.50
2018-08-22T09:14:46.947Z,73.40
2018-08-22T09:17:15.222Z,73.50
2018-08-22T09:19:43.460Z,74.00
2018-08-22T09:22:11.702Z,73.80
2018-08-22T09:24:39.959Z,73.50
2018-08-22T09:27:08.166Z,73.40
2018-08-22T09:29:36.496Z,72.90
2018-08-22T09:32:04.634Z,73.10
2018-08-22T09:34:32.890Z,72.10
2018-08-22T09:37:01.150Z,72.10
2018-08-22T09:39:29.460Z,70.50
2018-08-22T09:41:57.628Z,70.00
2018-08-22T09:44:25.865Z,70.10
2018-08-22T09:46:54.367Z,68.70
2018-08-22T09:49:22.686Z,68.40
2018-08-22T09:51:50.900Z,68.20
2018-08-22T09:54:19.127Z,67.80
2018-08-22T09:56:47.376Z,67.50
2018-08-22T09:59:15.628Z,67.10
2018-08-22T10:01:44.972Z,66.50
2018-08-22T10:04:13.274Z,65.50
2018-08-22T10:06:44.749Z,65.80
2018-08-22T10:09:14.914Z,65.50
2018-08-22T10:11:43.256Z,65.00
2018-08-22T10:14:11.775Z,64.20
2018-08-22T10:16:40.048Z,63.30
2018-08-22T10:19:08.459Z,62.70
2018-08-22T10:21:36.718Z,62.60
2018-08-22T10:24:04.973Z,62.10
2018-08-22T10:26:33.237Z,61.90
2018-08-22T10:29:01.421Z,61.90
2018-08-22T10:31:29.633Z,61.90
2018-08-22T10:33:57.960Z,60.70
2018-08-22T10:36:26.190Z,59.70
2018-08-22T10:38:54.411Z,59.30
2018-08-22T10:41:22.644Z,59.10
2018-08-22T10:43:50.850Z,58.90
2018-08-22T10:46:19.083Z,58.40
2018-08-22T10:48:47.291Z,58.40
2018-08-22T10:51:15.523Z,58.50
2018-08-22T10:53:43.747Z,58.20
2018-08-22T10:56:11.975Z,58.70
2018-08-22T10:58:40.171Z,58.00
2018-08-22T11:01:08.394Z,57.50
2018-08-22T11:03:36.804Z,57.60
2018-08-22T11:06:05.271Z,57.50
2018-08-22T11:08:33.488Z,57.10
2018-08-22T11:11:01.721Z,56.80
2018-08-22T11:13:30.888Z,56.70
2018-08-22T11:15:59.421Z,56.20
2018-08-22T11:18:28.240Z,56.20
2018-08-22T11:21:08.161Z,56.00
2018-08-22T11:23:47.701Z,55.90
2018-08-22T11:26:27.311Z,55.40
2018-08-22T11:29:07.119Z,55.30
2018-08-22T11:31:46.949Z,55.40
2018-08-22T11:34:26.830Z,55.50
2018-08-22T11:37:14.111Z,55.40
2018-08-22T11:39:44.706Z,55.00
2018-08-22T11:42:13.205Z,55.00
2018-08-22T11:44:41.716Z,54.90
2018-08-22T11:47:10.792Z,55.20
2018-08-22T11:49:39.070Z,55.00
2018-08-22T11:52:07.542Z,54.10
2018-08-22T11:54:36.246Z,53.70
2018-08-22T11:57:04.940Z,53.60
2018-08-22T11:59:33.519Z,53.20
2018-08-22T12:02:02.587Z,52.90
2018-08-22T12:04:30.859Z,53.00
2018-08-22T12:06:59.470Z,52.50
2018-08-22T12:09:28.523Z,52.40
2018-08-22T12:11:56.744Z,52.10
2018-08-22T12:14:24.952Z,51.60
2018-08-22T12:16:53.347Z,51.50
2018-08-22T12:19:21.900Z,51.30
2018-08-22T12:21:50.170Z,51.20
2018-08-22T12:24:18.886Z,50.80
2018-08-22T12:26:47.254Z,50.90
2018-08-22T12:29:15.731Z,51.40
2018-08-22T12:31:44.051Z,51.40
2018-08-22T12:34:13.629Z,51.20
2018-08-22T12:36:42.058Z,51.20
2018-08-22T12:39:11.021Z,51.20
2018-08-22T12:41:39.661Z,50.90
2018-08-22T12:44:08.144Z,51.00
2018-08-22T12:46:36.728Z,50.90
2018-08-22T12:49:05.426Z,50.70
2018-08-22T12:51:34.082Z,50.50
2018-08-22T12:54:03.008Z,50.20
2018-08-22T12:56:31.430Z,49.80
2018-08-22T12:58:59.611Z,49.60
2018-08-22T13:01:28.797Z,49.00
2018-08-22T13:03:57.342Z,48.80
2018-08-22T13:06:25.784Z,49.00
2018-08-22T13:08:54.054Z,49.50
2018-08-22T13:11:22.335Z,49.70
2018-08-22T13:13:50.522Z,49.20
2018-08-22T13:16:18.762Z,48.90
2018-08-22T13:18:46.976Z,49.20
2018-08-22T13:21:15.175Z,48.60
2018-08-22T13:23:43.394Z,48.50
2018-08-22T13:26:11.584Z,48.10
2018-08-22T13:28:39.790Z,47.60
2018-08-22T13:31:08.226Z,47.90
2018-08-22T13:33:36.472Z,48.30
2018-08-22T13:36:05.310Z,48.50
2018-08-22T13:38:34.228Z,48.30
2018-08-22T13:41:02.501Z,48.00
2018-08-22T13:43:30.731Z,47.60
2018-08-22T13:45:58.915Z,47.00
2018-08-22T13:48:27.147Z,45.60
2018-08-22T13:50:55.437Z,43.20
2018-08-22T13:53:23.800Z,41.50
2018-08-22T13:55:52.000Z,39.80
2018-08-22T13:58:20.245Z,39.20
2018-08-22T14:00:48.460Z,38.00
2018-08-22T14:03:16.690Z,38.30
2018-08-22T14:05:44.888Z,38.00
2018-08-22T14:08:13.179Z,36.80
2018-08-22T14:10:41.463Z,36.90
2018-08-22T14:13:09.671Z,37.00
2018-08-22T14:15:37.923Z,38.40
2018-08-22T14:18:05.939Z,39.40
2018-08-22T14:20:34.130Z,40.30
2018-08-22T14:23:02.342Z,39.60
2018-08-22T14:25:30.887Z,38.20
2018-08-22T14:27:59.924Z,35.40
2018-08-22T14:30:28.121Z,34.30
2018-08-22T14:32:56.361Z,32.90
2018-08-22T14:35:24.600Z,31.60
2018-08-22T14:37:52.838Z,32.00
2018-08-22T14:40:21.239Z,31.50
2018-08-22T14:42:49.460Z,31.40
2018-08-22T14:45:17.662Z,30.90
2018-08-22T14:47:45.921Z,30.00
2018-08-22T14:50:14.156Z,29.80
2018-08-22T14:52:42.356Z,29.70
2018-08-22T14:55:10.654Z,29.70
2018-08-22T14:57:38.941Z,29.70
2018-08-22T15:00:07.583Z,29.20
2018-08-22T15:02:35.915Z,29.00
2018-08-22T15:05:03.998Z,29.00
2018-08-22T15:07:32.199Z,28.70
2018-08-22T15:10:00.498Z,28.90
2018-08-22T15:12:28.747Z,28.90
2018-08-22T15:14:56.960Z,28.90
2018-08-22T15:17:31.827Z,29.00
2018-08-22T15:20:00.045Z,28.70
2018-08-22T15:22:28.272Z,28.30
2018-08-22T15:24:56.580Z,28.50
2018-08-22T15:27:24.807Z,28.50
2018-08-22T15:29:53.080Z,28.70
2018-08-22T15:32:21.280Z,28.50
2018-08-22T15:34:52.970Z,28.50
2018-08-22T15:37:21.586Z,28.20
2018-08-22T15:39:49.790Z,28.50
2018-08-22T15:42:18.024Z,28.70
2018-08-22T15:44:46.222Z,28.80
2018-08-22T15:47:14.501Z,29.40
2018-08-22T15:49:43.273Z,29.30
2018-08-22T15:52:11.511Z,29.70
2018-08-22T15:54:39.735Z,29.70
2018-08-22T15:57:07.990Z,30.50
2018-08-22T15:59:36.255Z,31.80
2018-08-22T16:02:04.503Z,33.10
2018-08-22T16:04:56.891Z,34.30
2018-08-22T16:07:25.120Z,35.50
2018-08-22T16:09:53.430Z,36.20
2018-08-22T16:12:21.648Z,36.40
2018-08-22T16:14:49.867Z,36.20
2018-08-22T16:17:18.106Z,36.50
2018-08-22T16:19:46.320Z,36.90
2018-08-22T16:22:14.558Z,37.10
2018-08-22T16:24:42.940Z,37.40
2018-08-22T16:27:11.395Z,38.10
2018-08-22T16:29:39.619Z,38.70
2018-08-22T16:32:07.851Z,39.20
2018-08-22T16:34:36.066Z,39.70
2018-08-22T16:37:04.274Z,40.30
2018-08-22T16:39:40.667Z,40.70
2018-08-22T16:42:09.216Z,40.90
2018-08-22T16:44:38.739Z,41.40
2018-08-22T16:47:07.107Z,42.10
2018-08-22T16:49:35.622Z,42.50
2018-08-22T16:52:04.129Z,42.60
2018-08-22T16:54:32.835Z,42.90
2018-08-22T16:57:01.062Z,43.40
2018-08-22T16:59:29.304Z,43.70
2018-08-22T17:01:57.705Z,43.70
2018-08-22T17:04:26.204Z,43.50
2018-08-22T17:06:54.783Z,43.60
2018-08-22T17:09:23.334Z,44.00
2018-08-22T17:11:51.538Z,44.40
2018-08-22T17:14:19.727Z,44.90
2018-08-22T17:16:47.950Z,45.30
2018-08-22T17:19:16.742Z,45.50
2018-08-22T17:21:44.991Z,45.90
2018-08-22T17:24:13.379Z,46.20
2018-08-22T17:26:41.589Z,46.20
2018-08-22T17:29:10.008Z,46.40
2018-08-22T17:31:38.213Z,46.80
2018-08-22T17:34:06.464Z,47.00
2018-08-22T17:36:34.694Z,47.20
2018-08-22T17:39:03.223Z,47.30
2018-08-22T17:41:31.426Z,47.10
2018-08-22T17:44:03.154Z,46.60
2018-08-22T17:46:32.764Z,46.30
2018-08-22T17:49:01.005Z,46.20
2018-08-22T17:51:29.239Z,46.60
2018-08-22T17:53:57.467Z,47.30
2018-08-22T17:56:26.790Z,48.00
2018-08-22T17:58:55.989Z,48.70
2018-08-22T18:01:24.596Z,49.20
2018-08-22T18:03:55.390Z,49.80
2018-08-22T18:06:23.681Z,50.20
2018-08-22T18:08:51.870Z,50.60
2018-08-22T18:11:20.347Z,51.60
2018-08-22T18:13:48.792Z,51.20
2018-08-22T18:16:16.967Z,51.50
2018-08-22T18:18:45.419Z,51.80
2018-08-22T18:21:13.639Z,52.20
2018-08-22T18:23:47.067Z,52.50
2018-08-22T18:26:16.343Z,52.80
2018-08-22T18:28:44.723Z,53.00
2018-08-22T18:31:12.919Z,53.40
2018-08-22T18:33:54.927Z,53.80
2018-08-22T18:36:23.757Z,54.10
2018-08-22T18:39:23.670Z,54.50
2018-08-22T18:41:51.891Z,54.90
2018-08-22T18:44:20.146Z,55.10
2018-08-22T18:46:48.482Z,55.40
2018-08-22T18:49:16.658Z,55.80
2018-08-22T18:51:46.425Z,56.10
2018-08-22T18:54:14.611Z,56.50
2018-08-22T18:56:42.815Z,56.60
2018-08-22T18:59:21.795Z,56.90
2018-08-22T19:01:50.224Z,57.10
2018-08-22T19:04:18.571Z,57.40
2018-08-22T19:06:46.771Z,57.50
2018-08-22T19:09:15.048Z,57.70
2018-08-22T19:11:43.275Z,57.90
2018-08-22T19:14:12.047Z,58.00
2018-08-22T19:16:40.855Z,58.20
2018-08-22T19:19:10.048Z,58.40
2018-08-22T19:21:38.656Z,58.50
2018-08-22T19:24:09.068Z,58.50
2018-08-22T19:26:37.339Z,58.70
2018-08-22T19:29:07.162Z,58.80
2018-08-22T19:31:39.246Z,59.10
2018-08-22T19:34:08.363Z,59.20
2018-08-22T19:36:37.871Z,59.40
2018-08-22T19:39:07.760Z,59.50
2018-08-22T19:41:36.703Z,60.00
2018-08-22T19:44:06.974Z,59.70
2018-08-22T19:46:37.518Z,59.90
2018-08-22T19:49:06.239Z,59.90
2018-08-22T19:51:34.992Z,60.30
2018-08-22T19:54:05.496Z,60.50
2018-08-22T19:56:34.706Z,60.90
2018-08-22T19:59:04.272Z,61.20
2018-08-22T20:01:34.698Z,61.60
2018-08-22T20:04:03.865Z,61.90
2018-08-22T20:06:32.417Z,62.20
2018-08-22T20:09:01.993Z,62.50
2018-08-22T20:11:32.480Z,62.80
2018-08-22T20:14:03.085Z,63.10
2018-08-22T20:16:31.453Z,63.30
2018-08-22T20:19:00.907Z,63.70
2018-08-22T20:21:30.950Z,63.90
2018-08-22T20:23:59.615Z,64.30
2018-08-22T20:26:28.328Z,64.60
2018-08-22T20:28:57.787Z,64.90
2018-08-22T20:31:26.061Z,65.20
2018-08-22T20:34:02.957Z,65.70
2018-08-22T20:36:31.670Z,66.00
2018-08-22T20:39:02.985Z,66.40
2018-08-22T20:41:31.226Z,66.80
2018-08-22T20:43:59.463Z,67.20
2018-08-22T20:46:27.701Z,67.70
2018-08-22T20:48:55.943Z,67.90
2018-08-22T20:51:24.163Z,68.10
2018-08-22T20:53:56.654Z,68.50
2018-08-22T20:56:24.872Z,69.00
2018-08-22T20:58:53.089Z,69.30
2018-08-22T21:01:21.353Z,69.50
2018-08-22T21:03:50.481Z,69.80
2018-08-22T21:06:18.696Z,70.40
2018-08-22T21:08:46.975Z,70.60
2018-08-22T21:11:15.165Z,71.10
2018-08-22T21:13:43.447Z,71.10
2018-08-22T21:16:11.617Z,71.40
2018-08-22T21:18:39.910Z,71.80
2018-08-22T21:21:38.799Z,72.10
2018-08-22T21:24:07.014Z,72.10
2018-08-22T21:26:39.640Z,72.10
2018-08-22T21:29:07.911Z,72.40
2018-08-22T21:31:36.527Z,72.80
2018-08-22T21:34:13.044Z,73.30
2018-08-22T21:36:43.233Z,73.70
2018-08-22T21:39:16.749Z,73.90
2018-08-22T21:41:45.820Z,74.20
2018-08-22T21:44:16.491Z,74.20
2018-08-22T21:46:44.699Z,74.30
2018-08-22T21:49:14.983Z,74.60
2018-08-22T21:51:43.658Z,74.60
2018-08-22T21:54:12.656Z,74.80
2018-08-22T21:56:41.251Z,74.80
2018-08-22T21:59:10.280Z,74.90
2018-08-22T22:02:11.763Z,75.00
2018-08-22T22:04:41.224Z,75.00
2018-08-22T22:07:10.692Z,74.90
2018-08-22T22:09:39.571Z,75.00
2018-08-22T22:12:13.230Z,75.40
2018-08-22T22:14:43.540Z,75.90
2018-08-22T22:17:11.768Z,76.10
2018-08-22T22:19:40.124Z,76.60
2018-08-22T22:22:08.368Z,76.80
2018-08-22T22:24:57.275Z,77.20
2018-08-22T22:27:26.047Z,77.10
2018-08-22T22:30:01.657Z,77.20
2018-08-22T22:32:30.120Z,77.50
2018-08-22T22:34:58.357Z,77.70
2018-08-22T22:37:26.667Z,78.10
2018-08-22T22:39:54.898Z,78.10
2018-08-22T22:42:26.121Z,78.00
2018-08-22T22:44:55.223Z,78.20
2018-08-22T22:52:24.131Z,78.60
2018-08-22T22:54:54.679Z,78.20
2018-08-22T22:57:22.943Z,79.00
2018-08-22T22:59:51.700Z,79.40
2018-08-22T23:02:23.347Z,80.10
2018-08-22T23:04:52.479Z,80.30
2018-08-22T23:07:26.872Z,80.50
2018-08-22T23:09:56.317Z,80.60
2018-08-22T23:12:40.471Z,80.70
2018-08-22T23:15:09.936Z,80.80
2018-08-22T23:17:38.455Z,81.20
2018-08-22T23:20:15.691Z,81.30
2018-08-22T23:22:43.904Z,81.50
2018-08-22T23:25:12.143Z,82.00
2018-08-22T23:27:40.879Z,82.00
2018-08-22T23:30:09.350Z,82.70
2018-08-22T23:32:38.330Z,82.10
2018-08-22T23:35:20.145Z,82.50
2018-08-22T23:37:51.884Z,83.00
2018-08-22T23:40:20.907Z,82.80
2018-08-22T23:42:49.120Z,83.10
2018-08-22T23:45:17.503Z,83.40
2018-08-22T23:47:45.709Z,83.90
2018-08-22T23:50:14.328Z,84.20
2018-08-22T23:52:54.511Z,84.40
2018-08-22T23:55:23.583Z,85.10
2018-08-22T23:57:55.519Z,84.40
